createdAt,value
2018-12-05T00:00:58.810Z,8.20
2018-12-05T00:03:27.136Z,8.20
2018-12-05T00:05:55.230Z,8.20
2018-12-05T00:08:23.257Z,8.20
2018-12-05T00:10:51.264Z,8.20
2018-12-05T00:13:19.341Z,8.30
2018-12-05T00:15:47.516Z,8.30
2018-12-05T00:18:15.565Z,8.20
2018-12-05T00:20:43.502Z,8.20
2018-12-05T00:23:11.566Z,8.20
2018-12-05T00:25:39.662Z,8.20
2018-12-05T00:28:07.690Z,8.20
2018-12-05T00:30:35.607Z,8.20
2018-12-05T00:33:03.448Z,8.20
2018-12-05T00:35:31.300Z,8.20
2018-12-05T00:37:59.429Z,8.10
2018-12-05T00:40:27.430Z,8.00
2018-12-05T00:42:55.153Z,8.00
2018-12-05T00:45:23.330Z,8.10
2018-12-05T00:47:51.243Z,8.10
2018-12-05T00:50:18.981Z,8.20
2018-12-05T00:52:46.893Z,8.10
2018-12-05T00:55:15.023Z,7.80
2018-12-05T00:57:43.134Z,7.80
2018-12-05T01:00:11.285Z,7.80
2018-12-05T01:02:39.349Z,8.00
2018-12-05T01:05:07.891Z,8.00
2018-12-05T01:07:36.298Z,8.10
2018-12-05T01:10:05.238Z,8.10
2018-12-05T01:12:33.426Z,8.00
2018-12-05T01:15:01.444Z,8.00
2018-12-05T01:17:29.309Z,8.00
2018-12-05T01:19:57.062Z,8.10
2018-12-05T01:22:24.727Z,8.10
2018-12-05T01:24:52.632Z,8.10
2018-12-05T01:27:20.222Z,8.00
2018-12-05T01:29:48.174Z,8.10
2018-12-05T01:32:15.975Z,8.10
2018-12-05T01:34:43.968Z,8.00
2018-12-05T01:37:11.764Z,8.00
2018-12-05T01:39:39.478Z,8.00
2018-12-05T01:42:07.457Z,7.80
2018-12-05T01:44:35.197Z,7.80
2018-12-05T01:47:02.912Z,7.80
2018-12-05T01:49:30.588Z,7.80
2018-12-05T01:51:58.323Z,7.90
2018-12-05T01:54:26.111Z,7.80
2018-12-05T01:56:53.980Z,7.80
2018-12-05T01:59:21.912Z,7.90
2018-12-05T02:01:49.650Z,7.90
2018-12-05T02:04:17.523Z,7.80
2018-12-05T02:06:45.362Z,7.80
2018-12-05T02:09:13.039Z,7.80
2018-12-05T02:11:40.707Z,7.80
2018-12-05T02:14:08.427Z,7.70
2018-12-05T02:16:36.202Z,7.70
2018-12-05T02:19:04.249Z,7.60
2018-12-05T02:21:31.867Z,7.50
2018-12-05T02:23:59.635Z,7.50
2018-12-05T02:26:27.319Z,7.50
2018-12-05T02:28:55.074Z,7.50
2018-12-05T02:31:22.961Z,7.40
2018-12-05T02:33:50.551Z,7.50
2018-12-05T02:36:18.480Z,7.30
2018-12-05T02:38:46.441Z,7.40
2018-12-05T02:41:14.347Z,7.40
2018-12-05T02:43:42.164Z,7.30
2018-12-05T02:46:09.927Z,7.40
2018-12-05T02:48:37.552Z,7.40
2018-12-05T02:51:05.298Z,7.50
2018-12-05T02:53:33.082Z,7.20
2018-12-05T02:56:00.941Z,7.00
2018-12-05T02:58:28.816Z,6.90
2018-12-05T03:00:57.441Z,6.90
2018-12-05T03:03:25.395Z,6.90
2018-12-05T03:05:53.320Z,7.00
2018-12-05T03:08:21.257Z,6.90
2018-12-05T03:10:49.116Z,7.00
2018-12-05T03:13:16.980Z,7.00
2018-12-05T03:15:44.887Z,7.00
2018-12-05T03:18:12.555Z,7.00
2018-12-05T03:20:40.408Z,7.10
2018-12-05T03:23:08.284Z,7.10
2018-12-05T03:25:36.103Z,7.00
2018-12-05T03:28:03.943Z,7.10
2018-12-05T03:30:31.732Z,7.20
2018-12-05T03:32:59.368Z,7.30
2018-12-05T03:35:32.783Z,7.30
2018-12-05T03:38:00.595Z,7.40
2018-12-05T03:40:28.614Z,7.40
2018-12-05T03:42:56.673Z,7.50
2018-12-05T03:45:24.326Z,7.30
2018-12-05T03:47:52.092Z,7.40
2018-12-05T03:50:20.157Z,7.40
2018-12-05T03:52:48.128Z,7.40
2018-12-05T03:55:16.374Z,7.40
2018-12-05T03:57:44.546Z,7.40
2018-12-05T04:00:12.694Z,7.30
2018-12-05T04:02:40.502Z,7.40
2018-12-05T04:05:08.909Z,7.50
2018-12-05T04:07:37.085Z,7.60
2018-12-05T04:10:05.255Z,7.60
2018-12-05T04:12:40.465Z,7.70
2018-12-05T04:15:03.463Z,7.80
2018-12-05T04:17:31.477Z,7.90
2018-12-05T04:19:59.445Z,7.90
2018-12-05T04:22:27.510Z,7.90
2018-12-05T04:24:55.312Z,8.10
2018-12-05T04:27:25.420Z,8.10
2018-12-05T04:29:53.802Z,8.00
2018-12-05T04:32:21.641Z,8.00
2018-12-05T04:34:49.537Z,8.10
2018-12-05T04:37:17.522Z,8.10
2018-12-05T04:39:45.624Z,8.00
2018-12-05T04:42:13.595Z,8.00
2018-12-05T04:44:41.692Z,8.00
2018-12-05T04:47:09.636Z,7.80
2018-12-05T04:49:37.667Z,7.80
2018-12-05T04:52:05.821Z,7.90
2018-12-05T04:54:34.034Z,7.90
2018-12-05T04:57:02.258Z,7.90
2018-12-05T04:59:30.419Z,8.00
2018-12-05T05:01:58.706Z,8.00
2018-12-05T05:04:26.634Z,7.90
2018-12-05T05:06:54.814Z,7.70
2018-12-05T05:09:23.053Z,7.70
2018-12-05T05:11:50.952Z,7.70
2018-12-05T05:14:18.878Z,7.70
2018-12-05T05:16:47.025Z,7.70
2018-12-05T05:19:14.779Z,7.80
2018-12-05T05:21:42.652Z,7.80
2018-12-05T05:24:11.223Z,7.80
2018-12-05T05:26:39.415Z,7.80
2018-12-05T05:29:07.531Z,7.80
2018-12-05T05:31:35.622Z,7.90
2018-12-05T05:34:03.746Z,8.00
2018-12-05T05:36:31.894Z,8.00
2018-12-05T05:38:59.813Z,7.90
2018-12-05T05:41:27.769Z,8.00
2018-12-05T05:43:55.915Z,8.10
2018-12-05T05:46:24.115Z,8.00
2018-12-05T05:48:52.193Z,8.10
2018-12-05T05:51:19.988Z,8.10
2018-12-05T05:53:47.945Z,8.20
2018-12-05T05:56:16.204Z,8.10
2018-12-05T05:58:44.085Z,8.20
2018-12-05T06:01:12.198Z,8.20
2018-12-05T06:03:39.833Z,8.30
2018-12-05T06:06:07.543Z,8.40
2018-12-05T06:08:35.639Z,8.50
2018-12-05T06:11:03.669Z,8.60
2018-12-05T06:13:31.681Z,8.70
2018-12-05T06:15:59.523Z,8.70
2018-12-05T06:18:27.501Z,8.80
2018-12-05T06:20:55.316Z,8.80
2018-12-05T06:23:23.353Z,8.90
2018-12-05T06:25:51.244Z,8.90
2018-12-05T06:28:19.676Z,9.00
2018-12-05T06:30:47.828Z,9.10
2018-12-05T06:33:15.927Z,9.10
2018-12-05T06:35:43.986Z,9.20
2018-12-05T06:38:11.769Z,9.30
2018-12-05T06:40:39.899Z,9.30
2018-12-05T06:43:07.827Z,9.30
2018-12-05T06:45:35.713Z,9.30
2018-12-05T06:48:03.683Z,9.40
2018-12-05T06:50:31.486Z,9.40
2018-12-05T06:52:59.326Z,9.40
2018-12-05T06:55:27.361Z,9.40
2018-12-05T06:57:55.171Z,9.50
2018-12-05T07:00:23.113Z,9.50
2018-12-05T07:02:51.256Z,9.50
2018-12-05T07:05:19.115Z,9.50
2018-12-05T07:07:47.035Z,9.50
2018-12-05T07:10:15.185Z,9.60
2018-12-05T07:12:43.189Z,9.60
2018-12-05T07:15:11.048Z,9.60
2018-12-05T07:17:38.962Z,9.70
2018-12-05T07:20:08.495Z,9.60
2018-12-05T07:22:36.611Z,9.70
2018-12-05T07:25:04.993Z,9.70
2018-12-05T07:27:33.010Z,9.70
2018-12-05T07:30:00.947Z,9.80
2018-12-05T07:32:29.328Z,9.70
2018-12-05T07:34:57.179Z,9.70
2018-12-05T07:37:24.962Z,9.80
2018-12-05T07:39:52.549Z,10.00
2018-12-05T07:42:20.340Z,10.00
2018-12-05T07:44:48.400Z,10.00
2018-12-05T07:47:16.182Z,10.10
2018-12-05T07:49:44.229Z,10.10
2018-12-05T07:52:12.191Z,10.10
2018-12-05T07:54:40.207Z,10.00
2018-12-05T07:57:08.444Z,10.00
2018-12-05T07:59:36.251Z,10.00
2018-12-05T08:02:04.296Z,10.00
2018-12-05T08:04:32.658Z,10.00
2018-12-05T08:07:00.733Z,10.00
2018-12-05T08:09:29.334Z,10.00
2018-12-05T08:11:57.309Z,10.00
2018-12-05T08:14:25.163Z,10.00
2018-12-05T08:16:53.410Z,10.00
2018-12-05T08:19:21.758Z,10.10
2018-12-05T08:21:49.704Z,10.10
2018-12-05T08:24:17.750Z,10.10
2018-12-05T08:26:45.775Z,10.10
2018-12-05T08:29:13.960Z,10.20
2018-12-05T08:31:42.095Z,10.20
2018-12-05T08:34:10.103Z,10.30
2018-12-05T08:36:37.690Z,10.30
2018-12-05T08:39:08.163Z,10.30
2018-12-05T08:41:35.989Z,10.30
2018-12-05T08:44:04.178Z,10.30
2018-12-05T08:46:32.014Z,10.40
2018-12-05T08:48:59.629Z,10.30
2018-12-05T08:51:27.389Z,10.30
2018-12-05T08:53:55.232Z,10.30
2018-12-05T08:56:23.254Z,10.40
2018-12-05T08:58:51.132Z,10.40
2018-12-05T09:01:18.921Z,10.50
2018-12-05T09:03:46.472Z,10.50
2018-12-05T09:06:15.114Z,10.50
2018-12-05T09:08:42.782Z,10.50
2018-12-05T09:11:10.386Z,10.60
2018-12-05T09:13:38.222Z,10.60
2018-12-05T09:16:06.255Z,10.60
2018-12-05T09:18:33.921Z,10.70
2018-12-05T09:21:01.698Z,10.70
2018-12-05T09:23:29.882Z,10.70
2018-12-05T09:25:57.575Z,10.80
2018-12-05T09:28:25.290Z,10.80
2018-12-05T09:30:52.977Z,10.80
2018-12-05T09:33:21.175Z,10.90
2018-12-05T09:35:49.077Z,10.90
2018-12-05T09:38:16.844Z,10.90
2018-12-05T09:40:44.595Z,11.00
2018-12-05T09:45:55.068Z,10.90
2018-12-05T09:48:22.859Z,10.90
2018-12-05T09:50:50.655Z,11.00
2018-12-05T09:53:18.580Z,11.00
2018-12-05T09:55:46.443Z,11.10
2018-12-05T09:58:14.218Z,10.90
2018-12-05T10:00:42.095Z,10.90
2018-12-05T10:03:10.549Z,11.00
2018-12-05T10:05:38.462Z,11.00
2018-12-05T10:08:06.228Z,11.00
2018-12-05T10:10:33.965Z,11.00
2018-12-05T10:13:01.571Z,11.00
2018-12-05T10:15:29.389Z,11.00
2018-12-05T10:17:57.307Z,11.10
2018-12-05T10:20:24.952Z,11.20
2018-12-05T10:22:52.733Z,11.20
2018-12-05T10:25:20.486Z,11.20
2018-12-05T10:27:48.110Z,11.30
2018-12-05T10:30:15.754Z,11.30
2018-12-05T10:32:43.454Z,11.30
2018-12-05T10:35:11.378Z,11.20
2018-12-05T10:37:39.138Z,11.30
2018-12-05T10:40:07.266Z,11.30
2018-12-05T10:42:35.067Z,11.30
2018-12-05T10:45:04.060Z,11.30
2018-12-05T10:47:31.738Z,11.20
2018-12-05T10:49:59.629Z,11.20
2018-12-05T10:52:27.896Z,11.20
2018-12-05T10:54:55.733Z,11.30
2018-12-05T10:57:23.293Z,11.20
2018-12-05T10:59:51.165Z,11.30
2018-12-05T11:02:24.683Z,11.30
2018-12-05T11:04:58.051Z,11.30
2018-12-05T11:07:31.520Z,11.20
2018-12-05T11:10:04.903Z,11.10
2018-12-05T11:12:38.235Z,11.10
2018-12-05T11:15:11.854Z,11.20
2018-12-05T11:17:42.937Z,11.10
2018-12-05T11:20:16.545Z,11.10
2018-12-05T11:22:50.030Z,11.00
2018-12-05T11:25:18.259Z,11.10
2018-12-05T11:27:45.915Z,11.10
2018-12-05T11:30:13.627Z,11.20
2018-12-05T11:32:41.176Z,11.30
2018-12-05T11:35:09.269Z,11.30
2018-12-05T11:37:37.102Z,11.30
2018-12-05T11:40:05.664Z,11.40
2018-12-05T11:42:34.078Z,11.40
2018-12-05T11:45:02.122Z,11.50
2018-12-05T11:47:30.058Z,11.50
2018-12-05T11:49:57.869Z,11.50
2018-12-05T11:52:26.004Z,11.50
2018-12-05T11:54:54.155Z,11.50
2018-12-05T11:57:22.034Z,11.50
2018-12-05T11:59:50.118Z,11.50
2018-12-05T12:02:22.329Z,11.50
2018-12-05T12:04:48.218Z,11.60
2018-12-05T12:07:16.103Z,11.60
2018-12-05T12:09:44.072Z,11.60
2018-12-05T12:12:17.590Z,11.60
2018-12-05T12:14:45.548Z,11.60
2018-12-05T12:17:14.519Z,11.50
2018-12-05T12:19:42.466Z,11.60
2018-12-05T12:22:10.333Z,11.60
2018-12-05T12:24:38.411Z,11.50
2018-12-05T12:27:06.570Z,11.50
2018-12-05T12:29:34.522Z,11.60
2018-12-05T12:32:02.261Z,11.60
2018-12-05T12:34:30.190Z,11.70
2018-12-05T12:36:58.378Z,11.70
2018-12-05T12:39:26.456Z,11.80
2018-12-05T12:41:54.433Z,11.80
2018-12-05T12:44:22.381Z,11.80
2018-12-05T12:46:50.232Z,11.80
2018-12-05T12:49:18.573Z,11.80
2018-12-05T12:51:46.434Z,11.70
2018-12-05T12:54:14.236Z,11.80
2018-12-05T12:56:42.110Z,11.80
2018-12-05T12:59:10.073Z,11.80
2018-12-05T13:01:38.240Z,11.80
2018-12-05T13:04:06.335Z,11.80
2018-12-05T13:06:34.226Z,11.80
2018-12-05T13:09:02.468Z,11.90
2018-12-05T13:11:30.631Z,11.80
2018-12-05T13:13:58.577Z,11.80
2018-12-05T13:16:26.365Z,11.90
2018-12-05T13:18:54.273Z,11.90
2018-12-05T13:21:22.044Z,12.00
2018-12-05T13:23:49.854Z,12.00
2018-12-05T13:26:17.804Z,12.00
2018-12-05T13:28:45.486Z,12.00
2018-12-05T13:31:13.609Z,12.00
2018-12-05T13:33:41.391Z,12.00
2018-12-05T13:36:09.540Z,12.10
2018-12-05T13:38:37.593Z,12.10
2018-12-05T13:41:05.565Z,12.00
2018-12-05T13:43:34.577Z,11.90
2018-12-05T13:46:02.756Z,11.90
2018-12-05T13:48:30.705Z,11.90
2018-12-05T13:50:58.519Z,11.90
2018-12-05T13:53:26.541Z,11.90
2018-12-05T13:55:54.515Z,11.80
2018-12-05T13:58:22.333Z,11.80
2018-12-05T14:00:50.256Z,11.80
2018-12-05T14:03:18.311Z,11.70
2018-12-05T14:05:46.362Z,11.70
2018-12-05T14:08:14.299Z,11.70
2018-12-05T14:10:42.156Z,11.70
2018-12-05T14:13:10.093Z,11.60
2018-12-05T14:15:38.116Z,11.60
2018-12-05T14:18:06.144Z,11.70
2018-12-05T14:20:34.275Z,11.80
2018-12-05T14:23:02.194Z,11.70
2018-12-05T14:25:30.115Z,11.60
2018-12-05T14:27:58.278Z,11.60
2018-12-05T14:30:25.959Z,11.60
2018-12-05T14:32:53.887Z,11.70
2018-12-05T14:35:21.831Z,11.80
2018-12-05T14:37:49.629Z,11.80
2018-12-05T14:40:17.393Z,11.80
2018-12-05T14:42:45.050Z,11.80
2018-12-05T14:45:12.832Z,11.80
2018-12-05T14:47:41.218Z,11.80
2018-12-05T14:50:10.159Z,11.80
2018-12-05T14:52:38.049Z,11.80
2018-12-05T14:55:06.335Z,11.80
2018-12-05T14:57:34.308Z,11.80
2018-12-05T15:00:02.510Z,11.70
2018-12-05T15:02:30.543Z,11.70
2018-12-05T15:04:58.443Z,11.80
2018-12-05T15:07:27.122Z,11.70
2018-12-05T15:09:55.071Z,11.70
2018-12-05T15:12:23.094Z,11.70
2018-12-05T15:14:51.134Z,11.80
2018-12-05T15:17:19.873Z,11.80
2018-12-05T15:19:47.703Z,11.70
2018-12-05T15:22:15.663Z,11.70
2018-12-05T15:24:43.447Z,11.70
2018-12-05T15:27:11.305Z,11.60
2018-12-05T15:29:39.551Z,11.60
2018-12-05T15:32:07.605Z,11.60
2018-12-05T15:34:35.545Z,11.60
2018-12-05T15:37:04.173Z,11.60
2018-12-05T15:39:31.842Z,11.60
2018-12-05T15:41:59.717Z,11.60
2018-12-05T15:44:27.569Z,11.70
2018-12-05T15:46:55.397Z,11.60
2018-12-05T15:52:22.173Z,11.60
2018-12-05T15:57:43.298Z,11.50
2018-12-05T16:00:11.345Z,11.50
2018-12-05T16:02:39.099Z,11.40
2018-12-05T16:05:07.238Z,11.40
2018-12-05T16:07:34.919Z,11.40
2018-12-05T16:10:03.683Z,11.40
2018-12-05T16:12:32.075Z,11.30
2018-12-05T16:14:59.893Z,11.30
2018-12-05T16:17:27.527Z,11.40
2018-12-05T16:19:55.262Z,11.20
2018-12-05T16:22:23.169Z,11.10
2018-12-05T16:24:51.540Z,11.10
2018-12-05T16:27:19.338Z,11.10
2018-12-05T16:29:47.034Z,11.20
2018-12-05T16:32:14.765Z,11.10
2018-12-05T16:34:43.042Z,11.10
2018-12-05T16:37:10.954Z,11.20
2018-12-05T16:39:38.770Z,11.30
2018-12-05T16:42:06.430Z,11.30
2018-12-05T16:44:34.032Z,11.30
2018-12-05T16:47:01.947Z,11.30
2018-12-05T16:49:29.601Z,11.30
2018-12-05T16:51:57.915Z,11.30
2018-12-05T16:54:26.104Z,11.30
2018-12-05T16:56:53.789Z,11.30
2018-12-05T16:59:21.789Z,11.30
2018-12-05T17:01:49.495Z,11.30
2018-12-05T17:04:17.396Z,11.30
2018-12-05T17:06:45.307Z,11.30
2018-12-05T17:09:12.885Z,11.30
2018-12-05T17:11:41.194Z,11.20
2018-12-05T17:14:09.005Z,11.20
2018-12-05T17:16:36.601Z,11.10
2018-12-05T17:19:04.528Z,11.10
2018-12-05T17:21:32.296Z,11.10
2018-12-05T17:24:00.121Z,11.10
2018-12-05T17:26:27.867Z,11.20
2018-12-05T17:28:55.685Z,11.20
2018-12-05T17:31:23.557Z,11.10
2018-12-05T17:33:51.568Z,11.20
2018-12-05T17:36:19.381Z,11.20
2018-12-05T17:38:47.004Z,11.10
2018-12-05T17:41:15.150Z,11.00
2018-12-05T17:43:42.845Z,11.10
2018-12-05T17:46:11.191Z,11.10
2018-12-05T17:48:38.977Z,11.10
2018-12-05T17:51:06.625Z,11.10
2018-12-05T17:53:35.580Z,11.10
2018-12-05T17:56:03.340Z,11.10
2018-12-05T17:58:30.956Z,11.10
2018-12-05T18:00:58.717Z,11.10
2018-12-05T18:03:26.406Z,11.10
2018-12-05T18:05:54.393Z,11.00
2018-12-05T18:08:22.328Z,11.00
2018-12-05T18:10:50.078Z,11.00
2018-12-05T18:13:18.030Z,11.00
2018-12-05T18:15:46.060Z,11.00
2018-12-05T18:18:13.859Z,10.90
2018-12-05T18:20:41.829Z,10.80
2018-12-05T18:23:09.450Z,10.80
2018-12-05T18:25:37.291Z,10.80
2018-12-05T18:28:05.098Z,10.80
2018-12-05T18:30:32.985Z,10.90
2018-12-05T18:33:00.868Z,10.90
2018-12-05T18:35:28.596Z,10.90
2018-12-05T18:37:56.659Z,10.80
2018-12-05T18:40:24.357Z,10.90
2018-12-05T18:42:52.046Z,10.80
2018-12-05T18:45:19.700Z,10.80
2018-12-05T18:47:47.509Z,10.90
2018-12-05T18:50:15.358Z,10.80
2018-12-05T18:52:43.022Z,10.80
2018-12-05T18:55:10.727Z,10.70
2018-12-05T18:57:38.449Z,10.80
2018-12-05T19:00:08.508Z,10.80
2018-12-05T19:02:36.366Z,10.90
2018-12-05T19:05:04.578Z,10.90
2018-12-05T19:07:32.364Z,10.90
2018-12-05T19:10:00.083Z,10.70
2018-12-05T19:12:27.994Z,10.60
2018-12-05T19:14:55.820Z,10.50
2018-12-05T19:17:23.551Z,10.50
2018-12-05T19:19:51.432Z,10.50
2018-12-05T19:25:17.651Z,10.50
2018-12-05T19:27:45.304Z,10.50
2018-12-05T19:30:13.017Z,10.50
2018-12-05T19:32:40.839Z,10.50
2018-12-05T19:35:08.514Z,10.50
2018-12-05T19:37:36.351Z,10.50
2018-12-05T19:40:04.764Z,10.60
2018-12-05T19:42:32.423Z,10.50
2018-12-05T19:45:01.225Z,10.40
2018-12-05T19:47:29.158Z,10.30
2018-12-05T19:49:56.867Z,10.40
2018-12-05T19:52:24.632Z,10.40
2018-12-05T19:54:52.381Z,10.40
2018-12-05T19:57:20.189Z,10.40
2018-12-05T19:59:47.976Z,10.30
2018-12-05T20:02:16.058Z,10.30
2018-12-05T20:04:43.827Z,10.30
2018-12-05T20:07:11.516Z,10.30
2018-12-05T20:09:39.167Z,10.30
2018-12-05T20:12:07.094Z,10.30
2018-12-05T20:14:35.091Z,10.40
2018-12-05T20:17:03.092Z,10.40
2018-12-05T20:19:31.939Z,10.30
2018-12-05T20:21:59.590Z,10.30
2018-12-05T20:24:27.283Z,10.30
2018-12-05T20:26:55.667Z,10.30
2018-12-05T20:29:23.365Z,10.30
2018-12-05T20:31:51.250Z,10.40
2018-12-05T20:34:18.934Z,10.50
2018-12-05T20:36:46.659Z,10.40
2018-12-05T20:39:14.455Z,10.30
2018-12-05T20:41:43.683Z,10.40
2018-12-05T20:44:11.555Z,10.30
2018-12-05T20:46:39.623Z,10.30
2018-12-05T20:49:07.339Z,10.20
2018-12-05T20:51:35.246Z,10.20
2018-12-05T20:54:04.405Z,10.20
2018-12-05T20:56:32.510Z,10.30
2018-12-05T20:59:00.317Z,10.20
2018-12-05T21:01:28.387Z,10.30
2018-12-05T21:03:56.792Z,10.30
2018-12-05T21:06:24.575Z,10.20
2018-12-05T21:08:52.273Z,10.20
2018-12-05T21:11:20.370Z,10.20
2018-12-05T21:13:48.995Z,10.20
2018-12-05T21:16:17.017Z,10.20
2018-12-05T21:18:45.439Z,10.20
2018-12-05T21:21:14.341Z,10.20
2018-12-05T21:23:47.007Z,10.10
2018-12-05T21:26:15.573Z,10.20
2018-12-05T21:28:43.474Z,10.10
2018-12-05T21:31:11.194Z,10.10
2018-12-05T21:33:39.074Z,10.00
2018-12-05T21:36:06.885Z,9.90
2018-12-05T21:38:34.788Z,10.00
2018-12-05T21:41:02.606Z,10.00
2018-12-05T21:43:30.284Z,9.90
2018-12-05T21:45:58.011Z,9.90
2018-12-05T21:48:25.686Z,10.00
2018-12-05T21:50:53.498Z,9.90
2018-12-05T21:53:21.231Z,9.90
2018-12-05T21:55:48.987Z,9.70
2018-12-05T21:58:16.901Z,9.80
2018-12-05T22:00:44.612Z,9.80
2018-12-05T22:03:12.508Z,9.90
2018-12-05T22:05:40.974Z,10.00
2018-12-05T22:08:09.349Z,10.00
2018-12-05T22:10:37.146Z,10.00
2018-12-05T22:13:05.168Z,9.90
2018-12-05T22:15:33.222Z,9.90
2018-12-05T22:18:00.933Z,9.80
2018-12-05T22:20:29.762Z,9.80
2018-12-05T22:22:58.078Z,9.80
2018-12-05T22:25:26.045Z,9.70
2018-12-05T22:27:54.098Z,9.80
2018-12-05T22:30:22.097Z,9.90
2018-12-05T22:32:50.020Z,9.90
2018-12-05T22:35:18.085Z,9.90
2018-12-05T22:37:46.100Z,9.80
2018-12-05T22:40:13.815Z,9.90
2018-12-05T22:42:41.987Z,9.90
2018-12-05T22:45:10.305Z,9.90
2018-12-05T22:47:38.332Z,9.90
2018-12-05T22:50:07.376Z,10.00
2018-12-05T22:52:35.379Z,10.00
2018-12-05T22:55:04.172Z,9.80
2018-12-05T22:57:32.010Z,9.90
2018-12-05T23:00:00.018Z,9.90
2018-12-05T23:02:27.798Z,9.80
2018-12-05T23:04:55.830Z,9.70
2018-12-05T23:07:23.959Z,9.70
2018-12-05T23:09:51.875Z,9.70
2018-12-05T23:12:19.918Z,9.50
2018-12-05T23:14:48.033Z,9.60
2018-12-05T23:17:16.232Z,9.50
2018-12-05T23:19:44.227Z,9.50
2018-12-05T23:22:12.262Z,9.50
2018-12-05T23:24:40.469Z,9.50
2018-12-05T23:27:08.416Z,9.50
2018-12-05T23:29:36.294Z,9.40
2018-12-05T23:32:04.129Z,9.30
2018-12-05T23:34:31.892Z,9.40
2018-12-05T23:36:59.855Z,9.40
2018-12-05T23:39:27.651Z,9.40
2018-12-05T23:41:55.435Z,9.40
2018-12-05T23:44:23.193Z,9.50
2018-12-05T23:46:50.979Z,9.60
2018-12-05T23:49:18.773Z,9.70
2018-12-05T23:51:46.511Z,9.70
2018-12-05T23:54:14.384Z,9.80
2018-12-05T23:56:42.318Z,9.70
2018-12-05T23:59:10.181Z,9.80
